createdAt,value
2023-01-08T00:01:58.582Z,1.87
2023-01-08T00:05:03.932Z,2.03
2023-01-08T00:08:08.552Z,2.07
2023-01-08T00:11:12.004Z,1.79
2023-01-08T00:14:14.716Z,1.91
2023-01-08T00:17:18.728Z,1.96
2023-01-08T00:20:21.344Z,1.93
2023-01-08T00:23:24.192Z,2.06
2023-01-08T00:26:26.793Z,2.00
2023-01-08T00:29:29.562Z,2.02
2023-01-08T00:32:34.647Z,2.03
2023-01-08T00:35:38.101Z,1.99
2023-01-08T00:38:41.099Z,1.89
2023-01-08T00:41:45.492Z,1.95
2023-01-08T00:44:48.231Z,2.11
2023-01-08T00:47:52.674Z,1.93
2023-01-08T00:50:55.523Z,2.01
2023-01-08T00:53:58.136Z,2.08
2023-01-08T00:57:00.795Z,2.06
2023-01-08T01:00:05.135Z,1.86
2023-01-08T01:03:09.426Z,1.95
2023-01-08T01:06:14.170Z,1.98
2023-01-08T01:09:16.986Z,1.95
2023-01-08T01:12:19.694Z,1.82
2023-01-08T01:15:22.407Z,2.07
2023-01-08T01:18:27.238Z,1.92
2023-01-08T01:21:31.601Z,1.60
2023-01-08T01:24:34.486Z,1.77
2023-01-08T01:27:37.139Z,1.78
2023-01-08T01:30:39.974Z,1.82
2023-01-08T01:33:44.569Z,1.98
2023-01-08T01:36:47.263Z,1.82
2023-01-08T01:39:50.002Z,2.04
2023-01-08T01:42:52.638Z,2.02
2023-01-08T01:45:58.627Z,1.97
2023-01-08T01:49:07.056Z,2.06
2023-01-08T01:52:11.741Z,1.96
2023-01-08T01:55:15.902Z,2.09
2023-01-08T01:58:23.031Z,2.06
2023-01-08T02:01:27.083Z,2.06
2023-01-08T02:04:31.284Z,1.95
2023-01-08T02:07:41.495Z,2.01
2023-01-08T02:10:50.554Z,1.98
2023-01-08T02:14:00.294Z,1.98
2023-01-08T02:17:08.855Z,1.97
2023-01-08T02:20:17.155Z,1.99
2023-01-08T02:23:27.074Z,2.06
2023-01-08T02:26:31.893Z,2.28
2023-01-08T02:29:35.598Z,2.48
2023-01-08T02:32:40.607Z,2.45
2023-01-08T02:35:48.813Z,2.31
2023-01-08T02:39:03.882Z,2.32
2023-01-08T02:42:12.552Z,2.34
2023-01-08T02:45:28.923Z,2.39
2023-01-08T02:48:40.014Z,2.44
2023-01-08T02:51:48.327Z,2.35
2023-01-08T02:54:51.827Z,2.28
2023-01-08T02:57:56.516Z,2.18
2023-01-08T03:01:02.268Z,2.28
2023-01-08T03:04:09.935Z,2.38
2023-01-08T03:07:12.875Z,2.21
2023-01-08T03:10:16.090Z,2.13
2023-01-08T03:13:26.488Z,1.96
2023-01-08T03:16:34.006Z,2.06
2023-01-08T03:19:41.247Z,2.22
2023-01-08T03:22:47.842Z,2.00
2023-01-08T03:25:50.618Z,2.07
2023-01-08T03:28:57.531Z,2.15
2023-01-08T03:32:05.303Z,2.17
2023-01-08T03:35:10.775Z,2.23
2023-01-08T03:38:18.754Z,2.23
2023-01-08T03:41:24.889Z,2.36
2023-01-08T03:44:29.206Z,2.20
2023-01-08T03:47:33.285Z,2.17
2023-01-08T03:50:36.851Z,2.24
2023-01-08T03:53:39.640Z,2.17
2023-01-08T03:56:42.562Z,2.04
2023-01-08T03:59:47.360Z,1.74
2023-01-08T04:02:50.024Z,1.99
2023-01-08T04:05:52.713Z,1.94
2023-01-08T04:08:55.584Z,1.85
2023-01-08T04:11:58.347Z,2.07
2023-01-08T04:15:02.471Z,2.31
2023-01-08T04:18:05.954Z,2.56
2023-01-08T04:21:08.628Z,2.69
2023-01-08T04:24:11.880Z,2.78
2023-01-08T04:27:14.653Z,2.67
2023-01-08T04:30:18.833Z,2.89
2023-01-08T04:33:21.568Z,2.73
2023-01-08T04:36:24.171Z,3.01
2023-01-08T04:39:26.923Z,3.12
2023-01-08T04:42:29.598Z,3.12
2023-01-08T04:45:34.106Z,3.19
2023-01-08T04:48:37.211Z,2.98
2023-01-08T04:51:39.964Z,3.01
2023-01-08T04:54:42.587Z,3.09
2023-01-08T04:57:45.470Z,3.00
2023-01-08T05:00:49.591Z,2.92
2023-01-08T05:03:54.422Z,2.82
2023-01-08T05:06:57.069Z,2.96
2023-01-08T05:10:00.047Z,2.78
2023-01-08T05:13:03.004Z,2.92
2023-01-08T05:16:07.797Z,2.82
2023-01-08T05:19:10.514Z,2.52
2023-01-08T05:22:13.227Z,2.72
2023-01-08T05:25:16.052Z,2.64
2023-01-08T05:28:18.903Z,2.68
2023-01-08T05:31:24.022Z,2.67
2023-01-08T05:34:26.790Z,2.50
2023-01-08T05:37:29.458Z,2.79
2023-01-08T05:40:32.252Z,2.88
2023-01-08T05:43:35.398Z,2.96
2023-01-08T05:46:39.479Z,2.84
2023-01-08T05:49:42.231Z,3.05
2023-01-08T05:52:44.869Z,2.93
2023-01-08T05:55:47.837Z,3.05
2023-01-08T05:58:53.868Z,3.16
2023-01-08T06:01:57.981Z,3.31
2023-01-08T06:05:00.697Z,3.12
2023-01-08T06:08:03.484Z,3.23
2023-01-08T06:11:08.840Z,3.34
2023-01-08T06:14:11.500Z,3.33
2023-01-08T06:17:16.418Z,3.42
2023-01-08T06:20:19.143Z,3.38
2023-01-08T06:23:22.044Z,3.56
2023-01-08T06:26:24.747Z,3.49
2023-01-08T06:29:27.492Z,3.45
2023-01-08T06:32:31.620Z,3.39
2023-01-08T06:35:34.391Z,3.34
2023-01-08T06:38:37.934Z,3.53
2023-01-08T06:41:40.606Z,3.41
2023-01-08T06:44:43.411Z,3.48
2023-01-08T06:47:47.612Z,3.49
2023-01-08T06:50:50.368Z,3.38
2023-01-08T06:53:53.146Z,3.59
2023-01-08T06:56:55.815Z,3.53
2023-01-08T06:59:58.630Z,3.45
2023-01-08T07:03:02.986Z,3.54
2023-01-08T07:06:06.546Z,3.53
2023-01-08T07:09:12.334Z,3.59
2023-01-08T07:12:15.197Z,3.61
2023-01-08T07:15:17.941Z,3.70
2023-01-08T07:18:22.374Z,3.71
2023-01-08T07:21:25.195Z,3.80
2023-01-08T07:24:27.934Z,3.72
2023-01-08T07:27:31.852Z,3.85
2023-01-08T07:30:34.538Z,4.00
2023-01-08T07:33:38.733Z,4.02
2023-01-08T07:36:41.445Z,4.06
2023-01-08T07:39:44.138Z,4.16
2023-01-08T07:42:46.870Z,4.22
2023-01-08T07:45:49.509Z,4.29
2023-01-08T07:48:53.583Z,4.28
2023-01-08T07:51:56.449Z,4.40
2023-01-08T07:54:59.257Z,4.36
2023-01-08T07:58:08.240Z,4.51
2023-01-08T08:01:12.426Z,4.52
2023-01-08T08:04:18.053Z,4.65
2023-01-08T08:07:20.710Z,4.72
2023-01-08T08:10:23.378Z,4.93
2023-01-08T08:13:26.417Z,4.91
2023-01-08T08:16:29.201Z,4.92
2023-01-08T08:19:33.508Z,5.07
2023-01-08T08:22:36.632Z,5.28
2023-01-08T08:25:43.090Z,5.38
2023-01-08T08:28:45.764Z,5.57
2023-01-08T08:31:48.827Z,6.56
2023-01-08T08:34:53.384Z,7.46
2023-01-08T08:37:57.201Z,8.00
2023-01-08T08:41:00.122Z,8.90
2023-01-08T08:44:03.134Z,9.50
2023-01-08T08:47:07.630Z,9.81
2023-01-08T08:50:12.164Z,10.17
2023-01-08T08:53:15.006Z,10.92
2023-01-08T08:56:17.738Z,10.80
2023-01-08T08:59:20.551Z,11.04
2023-01-08T09:02:23.549Z,10.60
2023-01-08T09:05:27.849Z,10.60
2023-01-08T09:08:30.691Z,10.55
2023-01-08T09:11:33.307Z,10.88
2023-01-08T09:14:37.050Z,11.09
2023-01-08T09:17:39.742Z,10.41
2023-01-08T09:20:43.885Z,9.97
2023-01-08T09:23:48.334Z,9.63
2023-01-08T09:26:53.411Z,9.85
2023-01-08T09:29:56.336Z,10.01
2023-01-08T09:33:02.321Z,10.45
2023-01-08T09:36:11.065Z,10.20
2023-01-08T09:39:14.267Z,9.68
2023-01-08T09:42:21.888Z,10.30
2023-01-08T09:45:29.160Z,10.41
2023-01-08T09:48:36.044Z,11.06
2023-01-08T09:51:40.414Z,11.65
2023-01-08T09:54:43.239Z,11.91
2023-01-08T09:57:47.336Z,12.07
2023-01-08T10:00:50.810Z,12.03
2023-01-08T10:04:00.011Z,12.65
2023-01-08T10:07:13.653Z,12.86
2023-01-08T10:10:20.096Z,12.63
2023-01-08T10:13:22.945Z,12.58
2023-01-08T10:16:30.643Z,12.66
2023-01-08T10:19:33.542Z,12.82
2023-01-08T10:22:37.621Z,11.91
2023-01-08T10:25:56.329Z,12.80
2023-01-08T10:29:16.891Z,12.96
2023-01-08T10:32:26.494Z,12.85
2023-01-08T10:35:34.217Z,12.82
2023-01-08T10:38:42.901Z,13.21
2023-01-08T10:41:45.910Z,13.54
2023-01-08T10:44:59.958Z,14.39
2023-01-08T10:48:07.209Z,15.07
2023-01-08T10:51:15.961Z,14.44
2023-01-08T10:54:31.268Z,14.95
2023-01-08T10:57:34.908Z,15.08
2023-01-08T11:00:38.912Z,15.22
2023-01-08T11:03:42.352Z,14.87
2023-01-08T11:06:48.580Z,14.79
2023-01-08T11:09:55.078Z,14.37
2023-01-08T11:13:00.257Z,13.70
2023-01-08T11:16:05.730Z,14.17
2023-01-08T11:19:17.862Z,13.69
2023-01-08T11:22:23.034Z,14.38
2023-01-08T11:25:30.190Z,14.72
2023-01-08T11:28:47.264Z,14.46
2023-01-08T11:31:56.215Z,13.96
2023-01-08T11:35:03.597Z,13.62
2023-01-08T11:38:08.306Z,13.03
2023-01-08T11:41:35.576Z,12.56
2023-01-08T11:44:47.940Z,12.27
2023-01-08T11:48:07.764Z,12.10
2023-01-08T11:51:40.109Z,11.98
2023-01-08T11:55:24.206Z,11.88
2023-01-08T11:58:42.310Z,11.99
2023-01-08T12:01:54.149Z,12.17
2023-01-08T12:05:21.860Z,11.92
2023-01-08T12:08:35.946Z,13.39
2023-01-08T12:11:47.838Z,13.51
2023-01-08T12:15:04.233Z,13.21
2023-01-08T12:18:24.283Z,12.83
2023-01-08T12:21:44.747Z,12.61
2023-01-08T12:25:21.479Z,12.32
2023-01-08T12:28:45.573Z,12.83
2023-01-08T12:32:07.375Z,12.59
2023-01-08T12:35:14.180Z,12.89
2023-01-08T12:38:21.839Z,13.21
2023-01-08T12:41:25.432Z,13.18
2023-01-08T12:44:30.785Z,12.76
2023-01-08T12:47:37.865Z,13.06
2023-01-08T12:50:49.879Z,12.69
2023-01-08T12:54:00.114Z,12.83
2023-01-08T12:57:10.092Z,12.61
2023-01-08T13:00:22.592Z,12.27
2023-01-08T13:03:29.866Z,12.27
2023-01-08T13:06:32.705Z,12.51
2023-01-08T13:09:35.497Z,11.79
2023-01-08T13:12:40.973Z,11.94
2023-01-08T13:15:44.212Z,11.64
2023-01-08T13:18:57.153Z,11.87
2023-01-08T13:22:00.953Z,11.78
2023-01-08T13:25:33.076Z,11.59
2023-01-08T13:28:44.661Z,11.57
2023-01-08T13:31:47.852Z,11.66
2023-01-08T13:35:02.190Z,11.78
2023-01-08T13:38:13.576Z,11.91
2023-01-08T13:41:26.763Z,12.12
2023-01-08T13:44:32.167Z,11.97
2023-01-08T13:47:37.063Z,11.67
2023-01-08T13:50:46.674Z,11.39
2023-01-08T13:53:49.525Z,11.30
2023-01-08T13:56:55.757Z,11.21
2023-01-08T14:00:00.013Z,11.19
2023-01-08T14:03:02.909Z,11.20
2023-01-08T14:06:13.397Z,11.22
2023-01-08T14:09:22.065Z,11.00
2023-01-08T14:12:25.204Z,11.06
2023-01-08T14:15:29.226Z,10.96
2023-01-08T14:18:32.600Z,11.01
2023-01-08T14:21:37.943Z,10.99
2023-01-08T14:24:44.696Z,11.08
2023-01-08T14:27:59.228Z,10.95
2023-01-08T14:31:01.988Z,10.95
2023-01-08T14:34:05.480Z,11.07
2023-01-08T14:37:13.230Z,11.05
2023-01-08T14:40:17.326Z,10.97
2023-01-08T14:43:21.437Z,11.00
2023-01-08T14:46:27.879Z,10.91
2023-01-08T14:49:34.376Z,10.82
2023-01-08T14:52:40.853Z,10.75
2023-01-08T14:55:46.939Z,10.66
2023-01-08T14:58:50.619Z,10.63
2023-01-08T15:01:56.860Z,10.57
2023-01-08T15:05:05.188Z,10.57
2023-01-08T15:08:24.260Z,10.37
2023-01-08T15:11:31.001Z,10.40
2023-01-08T15:14:36.830Z,10.37
2023-01-08T15:17:41.175Z,10.11
2023-01-08T15:20:45.187Z,9.94
2023-01-08T15:23:52.342Z,9.78
2023-01-08T15:26:56.449Z,9.70
2023-01-08T15:30:00.893Z,9.56
2023-01-08T15:33:08.309Z,9.44
2023-01-08T15:36:11.141Z,9.33
2023-01-08T15:39:16.187Z,9.32
2023-01-08T15:42:39.869Z,9.25
2023-01-08T15:45:44.954Z,9.22
2023-01-08T15:48:47.783Z,9.26
2023-01-08T15:51:52.111Z,9.20
2023-01-08T15:54:57.065Z,9.27
2023-01-08T15:58:00.520Z,9.16
2023-01-08T16:01:03.316Z,9.25
2023-01-08T16:04:06.336Z,9.20
2023-01-08T16:07:09.650Z,9.29
2023-01-08T16:10:14.735Z,9.23
2023-01-08T16:13:17.463Z,9.24
2023-01-08T16:16:21.403Z,9.26
2023-01-08T16:19:25.153Z,9.17
2023-01-08T16:22:28.076Z,9.15
2023-01-08T16:25:32.333Z,9.20
2023-01-08T16:28:35.394Z,9.21
2023-01-08T16:31:38.591Z,9.24
2023-01-08T16:34:41.723Z,9.27
2023-01-08T16:37:44.821Z,9.28
2023-01-08T16:40:49.173Z,9.27
2023-01-08T16:43:52.413Z,9.27
2023-01-08T16:46:56.151Z,9.21
2023-01-08T16:49:58.995Z,9.10
2023-01-08T16:53:01.755Z,9.35
2023-01-08T16:56:06.704Z,9.32
2023-01-08T16:59:22.262Z,9.33
2023-01-08T17:02:25.956Z,9.31
2023-01-08T17:05:28.907Z,9.36
2023-01-08T17:08:31.696Z,9.30
2023-01-08T17:11:36.175Z,9.41
2023-01-08T17:14:38.913Z,9.39
2023-01-08T17:17:41.865Z,9.43
2023-01-08T17:20:49.395Z,9.51
2023-01-08T17:23:52.312Z,9.50
2023-01-08T17:26:57.400Z,9.55
2023-01-08T17:30:00.268Z,9.59
2023-01-08T17:33:03.725Z,9.56
2023-01-08T17:36:10.770Z,9.51
2023-01-08T17:39:13.492Z,9.60
2023-01-08T17:42:28.162Z,9.57
2023-01-08T17:45:31.143Z,9.48
2023-01-08T17:48:34.894Z,9.54
2023-01-08T17:51:38.720Z,9.54
2023-01-08T17:54:41.435Z,9.55
2023-01-08T17:57:45.584Z,9.57
2023-01-08T18:00:48.639Z,9.57
2023-01-08T18:03:52.627Z,9.58
2023-01-08T18:06:55.699Z,9.61
2023-01-08T18:09:58.590Z,9.55
2023-01-08T18:13:02.844Z,9.59
2023-01-08T18:16:07.624Z,9.61
2023-01-08T18:19:11.521Z,9.58
2023-01-08T18:22:14.165Z,9.56
2023-01-08T18:25:17.528Z,9.54
2023-01-08T18:28:21.703Z,9.59
2023-01-08T18:31:24.494Z,9.59
2023-01-08T18:34:27.212Z,9.67
2023-01-08T18:37:29.984Z,9.58
2023-01-08T18:40:32.872Z,9.61
2023-01-08T18:43:37.691Z,9.64
2023-01-08T18:46:40.721Z,9.55
2023-01-08T18:49:43.827Z,9.62
2023-01-08T18:52:47.390Z,9.56
2023-01-08T18:55:53.231Z,9.58
2023-01-08T18:58:57.791Z,9.60
2023-01-08T19:02:01.368Z,9.59
2023-01-08T19:05:04.769Z,9.59
2023-01-08T19:08:08.056Z,9.56
2023-01-08T19:11:11.905Z,9.59
2023-01-08T19:14:16.324Z,9.56
2023-01-08T19:17:19.294Z,9.61
2023-01-08T19:20:21.989Z,9.64
2023-01-08T19:23:25.550Z,9.61
2023-01-08T19:26:28.508Z,9.56
2023-01-08T19:29:32.617Z,9.51
2023-01-08T19:32:35.363Z,9.66
2023-01-08T19:35:38.369Z,9.55
2023-01-08T19:38:41.950Z,9.61
2023-01-08T19:42:03.659Z,9.62
2023-01-08T19:45:09.102Z,9.62
2023-01-08T19:48:11.733Z,9.66
2023-01-08T19:51:15.073Z,9.61
2023-01-08T19:54:18.890Z,9.57
2023-01-08T19:57:21.955Z,9.68
2023-01-08T20:00:26.311Z,9.56
2023-01-08T20:03:29.599Z,9.57
2023-01-08T20:06:32.442Z,9.66
2023-01-08T20:09:35.746Z,9.57
2023-01-08T20:12:38.711Z,9.55
2023-01-08T20:15:42.920Z,9.53
2023-01-08T20:18:46.071Z,9.59
2023-01-08T20:21:49.196Z,9.54
2023-01-08T20:24:53.259Z,9.50
2023-01-08T20:27:56.126Z,9.53
2023-01-08T20:31:06.055Z,9.53
2023-01-08T20:34:14.404Z,9.51
2023-01-08T20:37:17.257Z,9.49
2023-01-08T20:40:20.389Z,9.46
2023-01-08T20:43:23.767Z,9.45
2023-01-08T20:46:29.698Z,9.48
2023-01-08T20:49:32.730Z,9.40
2023-01-08T20:52:35.676Z,9.43
2023-01-08T20:55:39.051Z,9.43
2023-01-08T20:58:43.980Z,9.43
2023-01-08T21:01:48.105Z,9.47
2023-01-08T21:04:50.815Z,9.36
2023-01-08T21:07:53.505Z,9.37
2023-01-08T21:11:00.589Z,9.42
2023-01-08T21:14:04.430Z,9.36
2023-01-08T21:17:08.666Z,9.40
2023-01-08T21:20:12.331Z,9.34
2023-01-08T21:23:15.130Z,9.34
2023-01-08T21:26:18.806Z,9.28
2023-01-08T21:29:23.230Z,9.24
2023-01-08T21:32:27.225Z,9.18
2023-01-08T21:35:30.068Z,9.27
2023-01-08T21:38:33.541Z,9.24
2023-01-08T21:41:54.714Z,9.27
2023-01-08T21:45:15.537Z,9.27
2023-01-08T21:48:19.585Z,9.24
2023-01-08T21:51:40.605Z,9.08
2023-01-08T21:54:44.363Z,9.21
2023-01-08T21:57:46.975Z,9.17
2023-01-08T22:00:49.729Z,9.16
2023-01-08T22:03:54.455Z,9.10
2023-01-08T22:06:57.186Z,9.11
2023-01-08T22:10:00.641Z,9.07
2023-01-08T22:13:03.283Z,9.07
2023-01-08T22:16:09.129Z,8.95
2023-01-08T22:19:13.259Z,8.90
2023-01-08T22:22:16.013Z,9.05
2023-01-08T22:25:18.650Z,9.01
2023-01-08T22:28:21.267Z,8.93
2023-01-08T22:31:24.314Z,8.94
2023-01-08T22:34:30.505Z,8.98
2023-01-08T22:37:33.237Z,8.94
2023-01-08T22:40:38.790Z,8.78
2023-01-08T22:43:41.490Z,8.84
2023-01-08T22:46:44.289Z,8.89
2023-01-08T22:49:49.538Z,8.84
2023-01-08T22:52:52.165Z,8.87
2023-01-08T22:55:54.849Z,8.76
2023-01-08T22:58:58.029Z,8.71
2023-01-08T23:02:00.818Z,8.79
2023-01-08T23:05:05.697Z,8.62
2023-01-08T23:08:08.954Z,8.59
2023-01-08T23:11:14.334Z,8.66
2023-01-08T23:14:17.025Z,8.65
2023-01-08T23:17:19.704Z,8.58
2023-01-08T23:20:24.984Z,8.55
2023-01-08T23:23:27.660Z,8.54
2023-01-08T23:26:30.365Z,8.54
2023-01-08T23:29:32.910Z,8.51
2023-01-08T23:32:35.530Z,8.47
2023-01-08T23:35:39.537Z,8.45
2023-01-08T23:38:42.319Z,8.53
2023-01-08T23:41:44.946Z,8.42
2023-01-08T23:44:49.238Z,8.34
2023-01-08T23:47:51.917Z,8.32
2023-01-08T23:50:56.576Z,8.31
2023-01-08T23:53:59.314Z,8.26
2023-01-08T23:57:02.114Z,8.33
